createdAt,value
2018-11-22T00:00:34.740Z,8.95
2018-11-22T00:03:22.681Z,8.55
2018-11-22T00:05:50.877Z,9.20
2018-11-22T00:08:38.574Z,8.85
2018-11-22T00:11:26.494Z,9.13
2018-11-22T00:14:14.123Z,9.65
2018-11-22T00:17:01.857Z,9.57
2018-11-22T00:19:49.514Z,9.25
2018-11-22T00:22:37.435Z,9.73
2018-11-22T00:25:25.132Z,8.50
2018-11-22T00:28:12.767Z,9.78
2018-11-22T00:31:00.377Z,11.53
2018-11-22T00:33:48.053Z,9.88
2018-11-22T00:36:35.660Z,10.87
2018-11-22T00:39:23.547Z,9.80
2018-11-22T00:42:11.187Z,10.48
2018-11-22T00:44:58.928Z,11.18
2018-11-22T00:47:46.824Z,11.03
2018-11-22T00:50:34.453Z,11.03
2018-11-22T00:53:22.130Z,10.70
2018-11-22T00:56:09.820Z,12.33
2018-11-22T00:58:57.485Z,12.15
2018-11-22T01:01:45.231Z,11.73
2018-11-22T01:04:32.937Z,11.83
2018-11-22T01:07:20.554Z,11.83
2018-11-22T01:10:09.402Z,11.40
2018-11-22T01:12:57.713Z,11.60
2018-11-22T01:15:45.444Z,11.65
2018-11-22T01:18:33.100Z,11.35
2018-11-22T01:21:20.708Z,12.17
2018-11-22T01:24:08.352Z,12.18
2018-11-22T01:26:56.046Z,10.57
2018-11-22T01:29:44.042Z,11.88
2018-11-22T01:32:31.413Z,11.75
2018-11-22T01:35:20.015Z,12.23
2018-11-22T01:38:07.646Z,12.37
2018-11-22T01:40:55.593Z,12.10
2018-11-22T01:43:43.309Z,11.93
2018-11-22T01:46:30.973Z,10.93
2018-11-22T01:49:18.620Z,10.28
2018-11-22T01:52:06.513Z,13.07
2018-11-22T01:54:54.168Z,12.73
2018-11-22T01:57:42.388Z,13.00
2018-11-22T02:00:30.066Z,13.88
2018-11-22T02:03:17.768Z,14.23
2018-11-22T02:06:05.425Z,15.83
2018-11-22T02:08:53.061Z,13.03
2018-11-22T02:11:41.724Z,12.57
2018-11-22T02:14:29.384Z,15.55
2018-11-22T02:17:17.059Z,14.27
2018-11-22T02:20:05.892Z,15.30
2018-11-22T02:22:53.798Z,14.63
2018-11-22T02:25:41.452Z,15.83
2018-11-22T02:28:29.080Z,15.28
2018-11-22T02:31:16.957Z,15.13
2018-11-22T02:34:04.680Z,17.20
2018-11-22T02:36:52.333Z,18.30
2018-11-22T02:39:39.959Z,16.23
2018-11-22T02:42:27.606Z,15.93
2018-11-22T02:45:16.491Z,18.50
2018-11-22T02:48:04.123Z,14.95
2018-11-22T02:50:51.760Z,13.87
2018-11-22T02:53:39.403Z,14.80
2018-11-22T02:56:27.034Z,16.33
2018-11-22T02:59:14.887Z,17.62
2018-11-22T03:02:02.844Z,17.32
2018-11-22T03:04:50.457Z,16.05
2018-11-22T03:07:38.090Z,17.30
2018-11-22T03:10:26.475Z,19.60
2018-11-22T03:13:15.275Z,17.70
2018-11-22T03:16:02.914Z,17.03
2018-11-22T03:18:50.535Z,14.93
2018-11-22T03:21:38.190Z,17.50
2018-11-22T03:24:25.871Z,17.42
2018-11-22T03:30:08.890Z,15.65
2018-11-22T03:32:56.599Z,16.35
2018-11-22T03:35:44.276Z,18.75
2018-11-22T03:38:31.914Z,18.37
2018-11-22T03:41:19.560Z,17.60
2018-11-22T03:44:07.181Z,17.27
2018-11-22T03:46:54.822Z,18.23
2018-11-22T03:49:42.854Z,16.85
2018-11-22T03:52:30.750Z,16.67
2018-11-22T03:55:18.804Z,16.77
2018-11-22T03:58:06.468Z,17.77
2018-11-22T04:00:55.175Z,16.10
2018-11-22T04:03:42.832Z,18.42
2018-11-22T04:06:30.509Z,16.57
2018-11-22T04:09:18.148Z,18.90
2018-11-22T04:12:05.789Z,16.33
2018-11-22T04:14:53.414Z,17.35
2018-11-22T04:17:41.049Z,16.33
2018-11-22T04:20:30.480Z,16.12
2018-11-22T04:23:18.079Z,17.40
2018-11-22T04:26:06.124Z,17.57
2018-11-22T04:28:53.999Z,16.23
2018-11-22T04:31:41.759Z,17.70
2018-11-22T04:34:29.442Z,16.07
2018-11-22T04:37:17.053Z,16.62
2018-11-22T04:40:06.080Z,15.10
2018-11-22T04:42:54.317Z,17.00
2018-11-22T04:45:41.986Z,15.53
2018-11-22T04:48:29.602Z,16.62
2018-11-22T04:51:17.259Z,16.70
2018-11-22T04:54:04.916Z,16.37
2018-11-22T04:56:52.552Z,15.37
2018-11-22T04:59:40.618Z,15.63
2018-11-22T05:02:28.304Z,16.62
2018-11-22T05:05:17.366Z,17.05
2018-11-22T05:08:05.008Z,16.90
2018-11-22T05:10:52.625Z,15.20
2018-11-22T05:13:40.361Z,16.60
2018-11-22T05:16:28.014Z,16.77
2018-11-22T05:19:15.689Z,16.25
2018-11-22T05:22:03.350Z,16.47
2018-11-22T05:24:51.064Z,16.15
2018-11-22T05:27:38.831Z,15.37
2018-11-22T05:30:28.050Z,16.48
2018-11-22T05:33:15.694Z,16.75
2018-11-22T05:36:03.612Z,16.20
2018-11-22T05:38:51.308Z,17.12
2018-11-22T05:41:39.615Z,15.77
2018-11-22T05:44:26.879Z,14.87
2018-11-22T05:47:14.776Z,16.00
2018-11-22T05:50:02.779Z,16.45
2018-11-22T05:52:50.799Z,17.83
2018-11-22T05:58:32.152Z,14.80
2018-11-22T06:01:19.768Z,14.97
2018-11-22T06:04:07.413Z,13.80
2018-11-22T06:06:55.062Z,16.63
2018-11-22T06:09:42.712Z,17.02
2018-11-22T06:12:30.618Z,16.30
2018-11-22T06:15:18.526Z,16.42
2018-11-22T06:18:06.139Z,18.32
2018-11-22T06:20:53.824Z,17.83
2018-11-22T06:26:37.432Z,18.37
2018-11-22T06:29:25.607Z,16.82
2018-11-22T06:32:13.306Z,17.60
2018-11-22T06:35:01.011Z,17.62
2018-11-22T06:37:48.674Z,17.33
2018-11-22T06:43:43.442Z,18.37
2018-11-22T06:46:31.094Z,19.93
2018-11-22T06:49:18.791Z,16.80
2018-11-22T06:52:06.391Z,18.87
2018-11-22T06:57:47.729Z,17.37
2018-11-22T07:00:35.637Z,17.32
2018-11-22T07:03:23.569Z,16.02
2018-11-22T07:06:11.211Z,16.25
2018-11-22T07:12:06.009Z,17.80
2018-11-22T07:14:53.652Z,17.35
2018-11-22T07:17:41.377Z,16.43
2018-11-22T07:20:29.042Z,16.82
2018-11-22T07:23:17.010Z,16.27
2018-11-22T07:26:04.832Z,16.90
2018-11-22T07:28:52.479Z,16.75
2018-11-22T07:31:40.188Z,17.87
2018-11-22T07:34:28.119Z,14.87
2018-11-22T07:37:15.804Z,15.77
2018-11-22T07:40:03.563Z,17.10
2018-11-22T07:42:51.320Z,16.87
2018-11-22T07:45:40.591Z,16.73
2018-11-22T07:48:28.243Z,16.82
2018-11-22T07:51:15.890Z,16.13
2018-11-22T07:54:03.530Z,16.57
2018-11-22T07:56:51.218Z,16.73
2018-11-22T07:59:39.124Z,16.37
2018-11-22T08:02:25.788Z,15.13
2018-11-22T08:05:13.918Z,17.02
2018-11-22T08:08:01.584Z,17.27
2018-11-22T08:10:49.220Z,18.32
2018-11-22T08:16:25.669Z,16.83
2018-11-22T08:19:13.312Z,15.53
2018-11-22T08:22:00.143Z,16.80
2018-11-22T08:24:48.392Z,16.37
2018-11-22T08:30:31.903Z,16.10
2018-11-22T08:33:19.643Z,18.27
2018-11-22T08:36:07.568Z,17.73
2018-11-22T08:38:55.208Z,15.48
2018-11-22T08:44:30.267Z,20.02
2018-11-22T08:47:18.017Z,20.70
2018-11-22T08:50:07.069Z,17.60
2018-11-22T08:52:56.105Z,16.90
2018-11-22T08:55:44.036Z,16.27
2018-11-22T08:58:31.732Z,17.70
2018-11-22T09:01:19.417Z,16.37
2018-11-22T09:04:07.153Z,17.52
2018-11-22T09:06:54.808Z,17.67
2018-11-22T09:09:42.423Z,19.10
2018-11-22T09:12:30.068Z,20.70
2018-11-22T09:15:19.172Z,18.95
2018-11-22T09:18:06.863Z,17.27
2018-11-22T09:20:54.504Z,17.73
2018-11-22T09:23:42.138Z,17.27
2018-11-22T09:26:29.824Z,19.50
2018-11-22T09:29:18.076Z,20.80
2018-11-22T09:32:05.742Z,18.33
2018-11-22T09:34:53.383Z,16.77
2018-11-22T09:37:41.130Z,17.40
2018-11-22T09:40:30.398Z,18.30
2018-11-22T09:43:18.054Z,20.60
2018-11-22T09:46:05.802Z,18.90
2018-11-22T09:48:53.403Z,15.13
2018-11-22T09:51:41.078Z,15.63
2018-11-22T09:54:28.682Z,14.10
2018-11-22T09:57:16.640Z,14.38
2018-11-22T10:00:04.783Z,15.40
2018-11-22T10:02:52.703Z,16.25
2018-11-22T10:05:40.398Z,17.00
2018-11-22T10:08:28.026Z,16.17
2018-11-22T10:11:08.922Z,13.77
2018-11-22T10:13:49.608Z,16.37
2018-11-22T10:16:31.005Z,13.87
2018-11-22T10:19:11.594Z,18.48
2018-11-22T10:21:52.005Z,17.70
2018-11-22T10:24:32.318Z,15.38
2018-11-22T10:27:13.063Z,15.67
2018-11-22T10:29:53.844Z,17.85
2018-11-22T10:32:34.666Z,18.20
2018-11-22T10:35:17.252Z,14.65
2018-11-22T10:37:58.591Z,14.43
2018-11-22T10:40:38.784Z,17.03
2018-11-22T10:43:19.438Z,14.60
2018-11-22T10:46:00.282Z,15.03
2018-11-22T10:48:41.284Z,14.50
2018-11-22T10:51:22.533Z,16.30
2018-11-22T10:54:03.693Z,15.93
2018-11-22T10:56:44.878Z,15.57
2018-11-22T10:59:13.229Z,16.65
2018-11-22T11:05:19.594Z,15.40
2018-11-22T11:08:26.411Z,16.93
2018-11-22T11:11:14.084Z,17.23
2018-11-22T11:13:42.259Z,15.45
2018-11-22T11:19:25.640Z,16.25
2018-11-22T11:22:13.567Z,14.93
2018-11-22T11:25:01.421Z,14.50
2018-11-22T11:27:49.098Z,16.23
2018-11-22T11:30:36.852Z,13.65
2018-11-22T11:33:24.743Z,13.58
2018-11-22T11:36:17.807Z,15.57
2018-11-22T11:39:00.268Z,13.88
2018-11-22T11:41:47.965Z,16.83
2018-11-22T11:44:35.609Z,15.95
2018-11-22T11:47:03.856Z,12.65
2018-11-22T11:49:32.081Z,13.55
2018-11-22T11:52:19.709Z,13.70
2018-11-22T11:55:26.740Z,13.22
2018-11-22T11:58:14.475Z,14.55
2018-11-22T12:01:02.201Z,14.83
2018-11-22T12:03:49.859Z,17.05
2018-11-22T12:06:37.461Z,12.77
2018-11-22T12:09:25.144Z,13.88
2018-11-22T12:12:12.781Z,14.27
2018-11-22T12:15:00.435Z,15.35
2018-11-22T12:17:48.039Z,12.90
2018-11-22T12:20:35.967Z,14.47
2018-11-22T12:23:23.829Z,14.73
2018-11-22T12:26:11.471Z,14.23
2018-11-22T12:28:59.227Z,13.13
2018-11-22T12:31:47.165Z,14.30
2018-11-22T12:38:07.384Z,14.35
2018-11-22T12:40:54.992Z,13.27
2018-11-22T12:43:42.871Z,14.43
2018-11-22T12:46:30.516Z,13.30
2018-11-22T12:49:18.092Z,13.48
2018-11-22T12:52:06.029Z,14.07
2018-11-22T12:54:53.649Z,13.90
2018-11-22T12:57:41.538Z,13.75
2018-11-22T13:00:29.293Z,13.98
2018-11-22T13:03:17.252Z,16.02
2018-11-22T13:06:05.198Z,14.23
2018-11-22T13:08:55.062Z,14.60
2018-11-22T13:14:38.824Z,16.05
2018-11-22T13:17:26.474Z,15.35
2018-11-22T13:23:09.225Z,13.08
2018-11-22T13:29:04.001Z,13.43
2018-11-22T13:37:53.578Z,13.03
2018-11-22T13:40:22.146Z,13.95
2018-11-22T13:43:09.810Z,14.68
2018-11-22T13:45:57.478Z,12.33
2018-11-22T13:48:45.172Z,12.63
2018-11-22T13:51:32.849Z,12.80
2018-11-22T13:54:20.520Z,13.75
2018-11-22T13:57:09.057Z,14.53
2018-11-22T13:59:58.389Z,13.80
2018-11-22T14:02:44.233Z,13.13
2018-11-22T14:05:32.140Z,12.43
2018-11-22T14:08:19.805Z,14.47
2018-11-22T14:11:13.654Z,16.17
2018-11-22T14:13:55.157Z,14.90
2018-11-22T14:16:42.802Z,10.97
2018-11-22T14:19:30.439Z,13.03
2018-11-22T14:22:18.348Z,12.27
2018-11-22T14:25:06.375Z,12.35
2018-11-22T14:27:54.027Z,12.58
2018-11-22T14:30:41.952Z,12.20
2018-11-22T14:33:29.607Z,11.83
2018-11-22T14:36:17.313Z,12.55
2018-11-22T14:39:06.018Z,11.63
2018-11-22T14:41:53.653Z,11.90
2018-11-22T14:44:41.249Z,12.05
2018-11-22T14:47:28.949Z,10.77
2018-11-22T14:50:17.723Z,12.00
2018-11-22T14:53:24.795Z,12.63
2018-11-22T14:56:12.437Z,13.70
2018-11-22T14:59:00.146Z,13.13
2018-11-22T15:01:47.747Z,12.00
2018-11-22T15:04:35.405Z,14.43
2018-11-22T15:07:28.552Z,11.27
2018-11-22T15:10:12.018Z,11.25
2018-11-22T15:12:59.608Z,12.63
2018-11-22T15:15:47.321Z,14.73
2018-11-22T15:18:34.971Z,12.78
2018-11-22T15:21:22.599Z,12.07
2018-11-22T15:24:10.248Z,11.97
2018-11-22T15:26:57.941Z,12.27
2018-11-22T15:29:46.054Z,11.18
2018-11-22T15:32:33.597Z,11.27
2018-11-22T15:35:22.558Z,12.25
2018-11-22T15:38:10.200Z,11.45
2018-11-22T15:40:57.915Z,11.93
2018-11-22T15:43:45.587Z,12.30
2018-11-22T15:46:33.241Z,12.25
2018-11-22T15:49:20.911Z,14.15
2018-11-22T15:52:08.558Z,11.03
2018-11-22T15:54:56.248Z,13.08
2018-11-22T15:57:45.087Z,11.50
2018-11-22T16:00:33.856Z,12.13
2018-11-22T16:03:21.948Z,11.08
2018-11-22T16:06:09.606Z,13.20
2018-11-22T16:08:57.289Z,12.25
2018-11-22T16:11:44.895Z,13.47
2018-11-22T16:14:32.585Z,13.60
2018-11-22T16:17:20.210Z,12.77
2018-11-22T16:20:07.994Z,13.45
2018-11-22T16:22:55.911Z,13.18
2018-11-22T16:25:43.904Z,14.10
2018-11-22T16:28:31.601Z,13.83
2018-11-22T16:34:12.548Z,16.00
2018-11-22T16:37:00.476Z,14.30
2018-11-22T16:39:54.027Z,15.60
2018-11-22T16:42:36.113Z,13.10
2018-11-22T16:45:25.090Z,14.45
2018-11-22T16:48:13.714Z,15.45
2018-11-22T16:51:01.314Z,14.10
2018-11-22T16:53:49.325Z,13.28
2018-11-22T16:56:36.965Z,14.20
2018-11-22T16:59:25.086Z,13.98
2018-11-22T17:02:12.738Z,14.67
2018-11-22T17:05:00.345Z,14.83
2018-11-22T17:07:48.457Z,15.23
2018-11-22T17:10:36.491Z,15.58
2018-11-22T17:13:24.199Z,16.70
2018-11-22T17:16:11.833Z,16.75
2018-11-22T17:18:59.496Z,14.73
2018-11-22T17:21:47.445Z,13.90
2018-11-22T17:24:35.175Z,14.68
2018-11-22T17:27:22.838Z,16.40
2018-11-22T17:33:05.556Z,16.40
2018-11-22T17:35:53.208Z,17.07
2018-11-22T17:38:40.047Z,15.90
2018-11-22T17:44:23.507Z,13.83
2018-11-22T17:50:00.313Z,14.85
2018-11-22T17:52:47.975Z,15.08
2018-11-22T17:55:34.728Z,14.60
2018-11-22T17:58:22.355Z,15.32
2018-11-22T18:01:14.558Z,14.60
2018-11-22T18:03:58.011Z,14.95
2018-11-22T18:06:45.638Z,16.13
2018-11-22T18:09:33.245Z,15.80
2018-11-22T18:12:20.943Z,15.97
2018-11-22T18:15:09.443Z,15.00
2018-11-22T18:17:57.349Z,16.17
2018-11-22T18:20:45.016Z,18.20
2018-11-22T18:23:32.663Z,15.40
2018-11-22T18:26:20.394Z,15.75
2018-11-22T18:29:08.092Z,16.35
2018-11-22T18:31:56.020Z,16.20
2018-11-22T18:34:43.757Z,17.10
2018-11-22T18:37:31.383Z,15.78
2018-11-22T18:40:20.427Z,15.48
2018-11-22T18:43:08.119Z,16.65
2018-11-22T18:45:55.768Z,15.50
2018-11-22T18:48:43.456Z,16.82
2018-11-22T18:51:31.132Z,15.63
2018-11-22T18:54:18.778Z,17.15
2018-11-22T18:57:06.500Z,19.30
2018-11-22T18:59:54.415Z,17.27
2018-11-22T19:02:42.205Z,15.93
2018-11-22T19:05:30.105Z,15.03
2018-11-22T19:08:18.143Z,14.93
2018-11-22T19:11:05.781Z,16.13
2018-11-22T19:16:47.111Z,15.37
2018-11-22T19:19:34.796Z,16.10
2018-11-22T19:22:22.503Z,14.18
2018-11-22T19:25:10.426Z,14.50
2018-11-22T19:27:59.066Z,15.50
2018-11-22T19:30:47.521Z,15.32
2018-11-22T19:33:35.193Z,16.27
2018-11-22T19:36:22.858Z,15.37
2018-11-22T19:39:10.752Z,15.08
2018-11-22T19:41:58.422Z,15.73
2018-11-22T19:44:46.080Z,14.47
2018-11-22T19:47:33.760Z,14.00
2018-11-22T19:50:22.775Z,16.05
2018-11-22T19:53:12.073Z,15.90
2018-11-22T19:55:59.706Z,16.83
2018-11-22T19:58:47.442Z,15.05
2018-11-22T20:01:35.058Z,16.07
2018-11-22T20:04:22.688Z,16.37
2018-11-22T20:10:04.093Z,14.55
2018-11-22T20:12:51.787Z,13.65
2018-11-22T20:15:39.417Z,13.48
2018-11-22T20:18:27.066Z,14.07
2018-11-22T20:24:21.841Z,15.00
2018-11-22T20:27:09.465Z,14.53
2018-11-22T20:29:57.104Z,14.28
2018-11-22T20:32:45.125Z,13.77
2018-11-22T20:35:32.894Z,13.43
2018-11-22T20:38:20.556Z,15.30
2018-11-22T20:41:08.196Z,14.78
2018-11-22T20:43:55.865Z,15.68
2018-11-22T20:46:43.523Z,15.80
2018-11-22T20:49:31.178Z,14.28
2018-11-22T20:52:18.823Z,16.70
2018-11-22T20:55:07.755Z,13.78
2018-11-22T21:00:50.619Z,13.55
2018-11-22T21:03:38.546Z,12.98
2018-11-22T21:06:26.164Z,14.03
2018-11-22T21:09:13.840Z,12.18
2018-11-22T21:12:01.470Z,13.80
2018-11-22T21:14:49.096Z,14.03
2018-11-22T21:17:36.834Z,14.93
2018-11-22T21:20:43.682Z,14.18
2018-11-22T21:23:31.309Z,14.13
2018-11-22T21:26:18.967Z,15.50
2018-11-22T21:29:06.609Z,16.17
2018-11-22T21:31:54.663Z,17.33
2018-11-22T21:34:42.316Z,16.23
2018-11-22T21:40:06.513Z,13.78
2018-11-22T21:42:47.356Z,14.70
2018-11-22T21:45:28.995Z,14.90
2018-11-22T21:48:12.750Z,15.23
2018-11-22T21:50:53.648Z,15.63
2018-11-22T21:53:37.205Z,16.27
2018-11-22T21:56:17.783Z,14.97
2018-11-22T21:59:01.915Z,15.58
2018-11-22T22:01:42.448Z,16.63
2018-11-22T22:04:26.724Z,14.47
2018-11-22T22:07:07.436Z,17.80
2018-11-22T22:12:34.837Z,16.30
2018-11-22T22:17:57.405Z,17.23
2018-11-22T22:20:38.249Z,15.50
2018-11-22T22:23:19.301Z,15.08
2018-11-22T22:28:48.953Z,14.20
2018-11-22T22:40:03.524Z,16.05
2018-11-22T22:42:39.048Z,15.83
2018-11-22T22:45:20.559Z,17.17
2018-11-22T22:48:01.614Z,16.50
2018-11-22T22:50:42.673Z,14.23
2018-11-22T22:53:23.746Z,14.07
2018-11-22T22:56:04.458Z,14.07
2018-11-22T22:58:44.947Z,15.38
2018-11-22T23:01:26.091Z,14.67
2018-11-22T23:04:07.069Z,13.88
2018-11-22T23:06:47.568Z,13.87
2018-11-22T23:09:28.725Z,14.70
2018-11-22T23:12:09.166Z,15.63
2018-11-22T23:14:49.372Z,16.52
2018-11-22T23:17:29.709Z,15.30
2018-11-22T23:20:10.084Z,14.25
2018-11-22T23:22:51.138Z,15.70
2018-11-22T23:25:31.999Z,14.75
2018-11-22T23:28:12.330Z,15.00
2018-11-22T23:31:15.755Z,15.45
2018-11-22T23:33:43.952Z,13.32
2018-11-22T23:36:12.131Z,13.90
2018-11-22T23:38:40.336Z,12.98
2018-11-22T23:41:08.613Z,13.90
2018-11-22T23:43:36.829Z,13.48
2018-11-22T23:46:05.340Z,15.53
2018-11-22T23:48:33.532Z,17.87
2018-11-22T23:51:01.798Z,17.07
2018-11-22T23:53:30.050Z,19.10
2018-11-22T23:55:58.267Z,17.83
2018-11-22T23:58:26.484Z,16.45
